createdAt,value
2022-09-01T00:01:43.138Z,100780.34
2022-09-01T00:04:12.756Z,100771.13
2022-09-01T00:06:42.616Z,100764.13
2022-09-01T00:09:13.504Z,100773.75
2022-09-01T00:11:42.683Z,100768.50
2022-09-01T00:14:30.307Z,100774.41
2022-09-01T00:17:04.227Z,100771.41
2022-09-01T00:19:36.495Z,100773.34
2022-09-01T00:22:04.153Z,100764.19
2022-09-01T00:24:30.693Z,100772.97
2022-09-01T00:26:57.463Z,100770.88
2022-09-01T00:29:25.166Z,100766.88
2022-09-01T00:31:51.885Z,100770.59
2022-09-01T00:34:20.315Z,100763.19
2022-09-01T00:36:49.058Z,100768.09
2022-09-01T00:39:15.993Z,100769.81
2022-09-01T00:41:44.998Z,100764.94
2022-09-01T00:44:18.948Z,100771.75
2022-09-01T00:46:55.530Z,100769.81
2022-09-01T00:49:35.663Z,100765.84
2022-09-01T00:52:16.070Z,100766.72
2022-09-01T00:54:50.560Z,100770.84
2022-09-01T00:57:18.376Z,100768.28
2022-09-01T00:59:54.841Z,100778.72
2022-09-01T01:02:22.910Z,100771.31
2022-09-01T01:04:49.704Z,100772.31
2022-09-01T01:07:16.924Z,100767.63
2022-09-01T01:09:46.375Z,100762.41
2022-09-01T01:12:18.306Z,100770.28
2022-09-01T01:14:52.518Z,100761.41
2022-09-01T01:17:21.032Z,100773.34
2022-09-01T01:20:11.968Z,100770.56
2022-09-01T01:23:03.083Z,100768.47
2022-09-01T01:25:42.380Z,100766.78
2022-09-01T01:28:26.781Z,100761.81
2022-09-01T01:31:01.783Z,100762.00
2022-09-01T01:33:42.739Z,100758.09
2022-09-01T01:36:16.017Z,100756.09
2022-09-01T01:38:48.505Z,100756.69
2022-09-01T01:41:19.628Z,100756.69
2022-09-01T01:43:48.215Z,100754.19
2022-09-01T01:46:16.074Z,100759.94
2022-09-01T01:48:42.818Z,100759.53
2022-09-01T01:51:11.938Z,100760.88
2022-09-01T01:53:38.904Z,100762.75
2022-09-01T01:56:06.250Z,100762.81
2022-09-01T01:58:34.849Z,100761.56
2022-09-01T02:01:01.690Z,100771.41
2022-09-01T02:03:35.068Z,100761.19
2022-09-01T02:06:04.677Z,100759.91
2022-09-01T02:08:31.066Z,100762.31
2022-09-01T02:11:00.171Z,100763.59
2022-09-01T02:13:30.318Z,100762.38
2022-09-01T02:16:12.554Z,100758.44
2022-09-01T02:18:48.524Z,100770.59
2022-09-01T02:21:19.707Z,100765.16
2022-09-01T02:24:02.136Z,100767.28
2022-09-01T02:26:32.893Z,100760.94
2022-09-01T02:29:04.767Z,100771.78
2022-09-01T02:31:41.745Z,100767.09
2022-09-01T02:34:13.866Z,100768.19
2022-09-01T02:36:47.543Z,100772.84
2022-09-01T02:39:20.163Z,100762.09
2022-09-01T02:41:47.368Z,100762.09
2022-09-01T02:44:14.798Z,100763.59
2022-09-01T02:46:46.075Z,100761.06
2022-09-01T02:49:15.661Z,100755.56
2022-09-01T02:51:44.564Z,100763.19
2022-09-01T02:54:16.593Z,100773.78
2022-09-01T02:56:44.812Z,100763.00
2022-09-01T02:59:12.964Z,100768.91
2022-09-01T03:01:40.264Z,100771.03
2022-09-01T03:04:10.769Z,100767.00
2022-09-01T03:06:38.535Z,100772.09
2022-09-01T03:09:08.855Z,100771.25
2022-09-01T03:11:43.174Z,100767.88
2022-09-01T03:14:09.796Z,100769.78
2022-09-01T03:16:42.247Z,100778.47
2022-09-01T03:19:09.643Z,100774.22
2022-09-01T03:21:44.558Z,100771.28
2022-09-01T03:24:15.085Z,100779.53
2022-09-01T03:26:45.386Z,100781.84
2022-09-01T03:29:17.098Z,100776.31
2022-09-01T03:31:43.582Z,100778.22
2022-09-01T03:34:12.589Z,100772.47
2022-09-01T03:36:50.130Z,100767.38
2022-09-01T03:39:19.003Z,100771.59
2022-09-01T03:41:45.675Z,100765.66
2022-09-01T03:44:15.077Z,100767.38
2022-09-01T03:46:45.225Z,100769.44
2022-09-01T03:49:15.530Z,100773.69
2022-09-01T03:51:44.292Z,100772.84
2022-09-01T03:54:11.409Z,100778.31
2022-09-01T03:56:40.573Z,100778.53
2022-09-01T03:59:07.782Z,100776.00
2022-09-01T04:01:39.938Z,100773.63
2022-09-01T04:04:07.778Z,100772.97
2022-09-01T04:06:34.165Z,100769.63
2022-09-01T04:09:03.099Z,100771.53
2022-09-01T04:11:30.725Z,100774.69
2022-09-01T04:13:57.197Z,100778.72
2022-09-01T04:16:46.480Z,100772.38
2022-09-01T04:19:25.394Z,100763.50
2022-09-01T04:21:55.760Z,100771.59
2022-09-01T04:24:24.367Z,100771.38
2022-09-01T04:26:54.612Z,100769.50
2022-09-01T04:29:28.798Z,100775.84
2022-09-01T04:32:03.377Z,100768.66
2022-09-01T04:34:37.324Z,100767.81
2022-09-01T04:37:18.051Z,100772.50
2022-09-01T04:39:56.321Z,100773.16
2022-09-01T04:42:25.375Z,100767.00
2022-09-01T04:44:53.957Z,100772.75
2022-09-01T04:47:30.198Z,100774.00
2022-09-01T04:50:03.599Z,100773.16
2022-09-01T04:52:31.926Z,100774.22
2022-09-01T04:54:58.677Z,100763.88
2022-09-01T04:57:27.579Z,100770.19
2022-09-01T04:59:56.728Z,100770.84
2022-09-01T05:02:27.117Z,100768.97
2022-09-01T05:04:58.650Z,100770.00
2022-09-01T05:07:25.141Z,100771.69
2022-09-01T05:09:58.027Z,100778.25
2022-09-01T05:12:27.603Z,100773.38
2022-09-01T05:14:54.079Z,100770.00
2022-09-01T05:17:21.545Z,100774.47
2022-09-01T05:19:50.611Z,100780.34
2022-09-01T05:22:18.664Z,100776.34
2022-09-01T05:24:45.677Z,100781.84
2022-09-01T05:27:13.130Z,100791.16
2022-09-01T05:29:41.557Z,100783.53
2022-09-01T05:32:10.141Z,100782.03
2022-09-01T05:34:40.905Z,100780.13
2022-09-01T05:37:08.757Z,100782.25
2022-09-01T05:39:38.252Z,100784.97
2022-09-01T05:42:08.428Z,100782.00
2022-09-01T05:44:40.924Z,100782.41
2022-09-01T05:47:08.822Z,100777.75
2022-09-01T05:49:35.246Z,100789.78
2022-09-01T05:52:01.765Z,100797.16
2022-09-01T05:54:29.064Z,100793.75
2022-09-01T05:57:13.092Z,100789.50
2022-09-01T05:59:45.952Z,100790.16
2022-09-01T06:02:12.741Z,100794.41
2022-09-01T06:04:44.081Z,100798.81
2022-09-01T06:07:16.561Z,100798.81
2022-09-01T06:09:49.436Z,100805.16
2022-09-01T06:12:20.374Z,100793.91
2022-09-01T06:14:53.020Z,100793.31
2022-09-01T06:17:24.976Z,100804.03
2022-09-01T06:19:53.286Z,100793.47
2022-09-01T06:22:20.678Z,100800.00
2022-09-01T06:24:56.603Z,100800.19
2022-09-01T06:27:27.597Z,100795.03
2022-09-01T06:29:58.648Z,100800.31
2022-09-01T06:32:26.949Z,100794.97
2022-09-01T06:34:53.594Z,100800.03
2022-09-01T06:37:23.049Z,100799.94
2022-09-01T06:39:54.396Z,100802.44
2022-09-01T06:42:23.166Z,100796.03
2022-09-01T06:44:49.559Z,100805.28
2022-09-01T06:47:16.038Z,100801.28
2022-09-01T06:49:42.991Z,100807.00
2022-09-01T06:52:16.021Z,100808.69
2022-09-01T06:54:43.956Z,100813.53
2022-09-01T06:59:57.153Z,100817.97
2022-09-01T07:02:27.164Z,100828.16
2022-09-01T07:04:54.862Z,100825.06
2022-09-01T07:10:24.888Z,100824.66
2022-09-01T07:13:08.108Z,100825.03
2022-09-01T07:24:10.397Z,100835.63
2022-09-01T07:26:46.679Z,100836.56
2022-09-01T07:29:13.872Z,100833.50
2022-09-01T07:32:41.147Z,100837.84
2022-09-01T07:34:40.364Z,100832.63
2022-09-01T07:45:30.712Z,100845.88
2022-09-01T07:48:06.388Z,100852.47
2022-09-01T07:51:07.572Z,100843.38
2022-09-01T07:53:31.540Z,100837.63
2022-09-01T07:56:06.939Z,100848.13
2022-09-01T07:58:33.622Z,100842.75
2022-09-01T08:01:02.774Z,100852.38
2022-09-01T08:03:30.695Z,100851.41
2022-09-01T08:06:03.853Z,100845.66
2022-09-01T08:08:30.621Z,100854.41
2022-09-01T08:11:06.597Z,100853.13
2022-09-01T08:13:41.787Z,100854.63
2022-09-01T08:16:16.825Z,100858.91
2022-09-01T08:18:48.497Z,100869.56
2022-09-01T08:21:17.252Z,100860.06
2022-09-01T08:23:44.342Z,100867.59
2022-09-01T08:26:14.384Z,100862.53
2022-09-01T08:28:54.532Z,100868.69
2022-09-01T08:31:23.736Z,100875.09
2022-09-01T08:33:50.797Z,100869.66
2022-09-01T08:36:23.046Z,100875.41
2022-09-01T08:38:51.987Z,100882.91
2022-09-01T08:41:46.773Z,100888.28
2022-09-01T08:44:22.326Z,100874.09
2022-09-01T08:46:57.790Z,100866.25
2022-09-01T08:49:27.158Z,100864.50
2022-09-01T08:52:22.102Z,100862.84
2022-09-01T08:54:50.636Z,100859.09
2022-09-01T08:57:25.245Z,100859.81
2022-09-01T08:59:56.778Z,100861.22
2022-09-01T09:02:43.517Z,100878.72
2022-09-01T09:05:29.508Z,100872.94
2022-09-01T09:08:33.615Z,100871.34
2022-09-01T09:11:18.864Z,100866.88
2022-09-01T09:13:58.804Z,100861.25
2022-09-01T09:16:30.833Z,100877.63
2022-09-01T09:19:03.564Z,100883.31
2022-09-01T09:21:38.085Z,100881.91
2022-09-01T09:24:18.106Z,100875.19
2022-09-01T09:26:52.972Z,100891.91
2022-09-01T09:29:23.307Z,100867.50
2022-09-01T09:32:03.084Z,100878.69
2022-09-01T09:34:30.202Z,100884.09
2022-09-01T09:36:57.385Z,100885.44
2022-09-01T09:39:24.178Z,100887.94
2022-09-01T09:42:11.267Z,100899.41
2022-09-01T09:44:48.975Z,100870.25
2022-09-01T09:47:43.714Z,100862.94
2022-09-01T09:50:20.136Z,100878.75
2022-09-01T09:52:48.176Z,100876.03
2022-09-01T09:55:24.772Z,100880.97
2022-09-01T09:57:57.820Z,100861.47
2022-09-01T10:00:29.247Z,100853.97
2022-09-01T10:03:04.494Z,100877.59
2022-09-01T10:05:48.959Z,100894.75
2022-09-01T10:08:27.282Z,100881.22
2022-09-01T10:10:57.747Z,100876.50
2022-09-01T10:13:26.941Z,100889.38
2022-09-01T10:15:57.551Z,100874.31
2022-09-01T10:18:35.286Z,100874.88
2022-09-01T10:21:09.866Z,100853.97
2022-09-01T10:23:41.450Z,100853.06
2022-09-01T10:26:14.713Z,100841.03
2022-09-01T10:28:52.828Z,100861.03
2022-09-01T10:31:21.333Z,100863.25
2022-09-01T10:33:49.820Z,100870.28
2022-09-01T10:36:19.989Z,100863.06
2022-09-01T10:38:53.760Z,100870.28
2022-09-01T10:41:43.382Z,100880.13
2022-09-01T10:44:19.348Z,100878.44
2022-09-01T10:46:51.237Z,100901.13
2022-09-01T10:49:47.186Z,100911.69
2022-09-01T10:52:43.071Z,100895.94
2022-09-01T10:55:24.440Z,100905.03
2022-09-01T10:58:09.319Z,100895.31
2022-09-01T11:03:51.933Z,100918.66
2022-09-01T11:09:43.675Z,100890.81
2022-09-01T11:12:31.432Z,100886.19
2022-09-01T11:14:59.373Z,100885.47
2022-09-01T11:17:25.849Z,100876.97
2022-09-01T11:20:00.707Z,100882.94
2022-09-01T11:22:52.855Z,100881.16
2022-09-01T11:28:47.500Z,100882.06
2022-09-01T11:31:31.350Z,100854.88
2022-09-01T11:34:23.347Z,100852.72
2022-09-01T11:36:59.400Z,100840.22
2022-09-01T11:39:41.356Z,100850.88
2022-09-01T11:42:19.173Z,100840.63
2022-09-01T11:45:07.092Z,100844.63
2022-09-01T11:47:44.723Z,100853.97
2022-09-01T11:50:21.974Z,100860.47
2022-09-01T11:53:04.078Z,100837.41
2022-09-01T11:55:35.713Z,100854.22
2022-09-01T11:58:03.419Z,100825.44
2022-09-01T12:00:33.853Z,100816.56
2022-09-01T12:03:00.716Z,100820.63
2022-09-01T12:05:29.378Z,100839.00
2022-09-01T12:07:58.956Z,100857.44
2022-09-01T12:10:33.676Z,100812.06
2022-09-01T12:13:08.771Z,100838.16
2022-09-01T12:15:54.976Z,100843.53
2022-09-01T12:18:35.055Z,100833.63
2022-09-01T12:21:04.222Z,100821.78
2022-09-01T12:23:37.086Z,100810.81
2022-09-01T12:26:11.688Z,100806.78
2022-09-01T12:28:42.225Z,100809.28
2022-09-01T12:31:15.618Z,100790.09
2022-09-01T12:33:45.899Z,100790.22
2022-09-01T12:36:26.120Z,100798.38
2022-09-01T12:38:57.467Z,100808.41
2022-09-01T12:41:38.941Z,100822.41
2022-09-01T12:44:39.734Z,100815.78
2022-09-01T12:47:35.714Z,100820.88
2022-09-01T12:50:11.300Z,100816.38
2022-09-01T12:52:53.039Z,100768.72
2022-09-01T12:55:53.296Z,100792.16
2022-09-01T12:58:25.963Z,100824.91
2022-09-01T13:01:08.850Z,100849.53
2022-09-01T13:03:42.713Z,100834.84
2022-09-01T13:06:13.946Z,100822.94
2022-09-01T13:08:40.474Z,100836.97
2022-09-01T13:11:11.372Z,100842.25
2022-09-01T13:13:38.621Z,100826.41
2022-09-01T13:16:12.888Z,100833.38
2022-09-01T13:21:30.142Z,100836.25
2022-09-01T13:23:56.817Z,100849.94
2022-09-01T13:26:24.020Z,100855.16
2022-09-01T13:28:51.616Z,100860.75
2022-09-01T13:31:29.179Z,100849.03
2022-09-01T13:34:23.078Z,100852.16
2022-09-01T13:36:49.102Z,100825.16
2022-09-01T13:39:22.738Z,100801.31
2022-09-01T13:41:49.735Z,100803.34
2022-09-01T13:44:18.030Z,100807.88
2022-09-01T13:47:28.269Z,100826.00
2022-09-01T13:52:21.843Z,100851.56
2022-09-01T13:54:48.252Z,100847.06
2022-09-01T13:57:16.249Z,100834.63
2022-09-01T13:59:42.881Z,100819.34
2022-09-01T14:02:10.837Z,100789.81
2022-09-01T14:04:37.390Z,100798.22
2022-09-01T14:07:04.267Z,100812.69
2022-09-01T14:09:30.956Z,100801.88
2022-09-01T14:11:57.539Z,100810.94
2022-09-01T14:14:24.256Z,100798.03
2022-09-01T14:16:53.948Z,100821.41
2022-09-01T14:19:20.423Z,100823.03
2022-09-01T14:21:47.357Z,100832.13
2022-09-01T14:24:14.657Z,100801.50
2022-09-01T14:26:41.659Z,100775.09
2022-09-01T14:29:08.315Z,100788.50
2022-09-01T14:31:37.770Z,100798.81
2022-09-01T14:34:06.660Z,100797.72
2022-09-01T14:36:33.480Z,100785.19
2022-09-01T14:38:59.891Z,100779.59
2022-09-01T14:41:32.349Z,100776.56
2022-09-01T14:44:05.028Z,100801.38
2022-09-01T14:46:34.421Z,100808.66
2022-09-01T14:49:03.117Z,100809.75
2022-09-01T14:54:17.525Z,100781.94
2022-09-01T14:57:28.114Z,100799.81
2022-09-01T14:59:33.210Z,100798.72
2022-09-01T15:02:00.368Z,100798.22
2022-09-01T15:04:27.946Z,100797.09
2022-09-01T15:06:54.599Z,100781.22
2022-09-01T15:09:21.322Z,100788.78
2022-09-01T15:11:47.783Z,100783.47
2022-09-01T15:14:14.453Z,100787.06
2022-09-01T15:16:43.544Z,100812.16
2022-09-01T15:19:13.242Z,100799.59
2022-09-01T15:21:41.803Z,100804.84
2022-09-01T15:24:10.883Z,100787.53
2022-09-01T15:26:40.733Z,100775.50
2022-09-01T15:29:09.859Z,100769.06
2022-09-01T15:31:36.376Z,100762.31
2022-09-01T15:34:06.290Z,100757.00
2022-09-01T15:36:36.947Z,100746.41
2022-09-01T15:39:06.024Z,100751.94
2022-09-01T15:41:34.539Z,100739.34
2022-09-01T15:44:02.734Z,100733.47
2022-09-01T15:46:32.834Z,100739.88
2022-09-01T15:49:06.366Z,100742.38
2022-09-01T15:51:39.228Z,100727.28
2022-09-01T15:54:12.087Z,100725.91
2022-09-01T15:56:38.898Z,100727.63
2022-09-01T15:59:09.455Z,100741.19
2022-09-01T16:01:41.495Z,100752.63
2022-09-01T16:04:17.810Z,100750.06
2022-09-01T16:06:50.944Z,100741.31
2022-09-01T16:09:18.526Z,100758.03
2022-09-01T16:11:45.091Z,100748.78
2022-09-01T16:14:11.985Z,100736.53
2022-09-01T16:16:56.520Z,100727.28
2022-09-01T16:19:42.901Z,100720.25
2022-09-01T16:22:23.284Z,100697.94
2022-09-01T16:24:56.070Z,100695.69
2022-09-01T16:27:35.934Z,100690.34
2022-09-01T16:30:07.966Z,100684.22
2022-09-01T16:32:39.151Z,100692.00
2022-09-01T16:35:06.904Z,100679.16
2022-09-01T16:37:55.374Z,100681.34
2022-09-01T16:40:39.523Z,100688.34
2022-09-01T16:43:24.709Z,100683.59
2022-09-01T16:46:19.265Z,100673.78
2022-09-01T16:48:51.993Z,100675.72
2022-09-01T16:51:46.540Z,100663.66
2022-09-01T16:54:35.001Z,100665.38
2022-09-01T16:57:35.169Z,100664.53
2022-09-01T17:00:11.081Z,100657.25
2022-09-01T17:03:07.818Z,100665.06
2022-09-01T17:05:44.468Z,100648.25
2022-09-01T17:08:31.140Z,100637.06
2022-09-01T17:11:09.727Z,100662.44
2022-09-01T17:13:53.274Z,100658.72
2022-09-01T17:16:29.685Z,100657.03
2022-09-01T17:19:04.825Z,100668.16
2022-09-01T17:21:43.082Z,100670.63
2022-09-01T17:24:38.488Z,100668.03
2022-09-01T17:27:14.005Z,100654.59
2022-09-01T17:29:45.824Z,100659.28
2022-09-01T17:32:36.578Z,100665.91
2022-09-01T17:35:17.729Z,100670.34
2022-09-01T17:37:58.484Z,100673.09
2022-09-01T17:40:42.965Z,100668.84
2022-09-01T17:43:21.542Z,100663.78
2022-09-01T17:46:05.762Z,100658.41
2022-09-01T17:49:15.025Z,100669.53
2022-09-01T17:52:22.846Z,100653.78
2022-09-01T17:55:07.722Z,100649.38
2022-09-01T17:57:52.493Z,100639.19
2022-09-01T18:00:28.271Z,100639.72
2022-09-01T18:03:02.346Z,100644.16
2022-09-01T18:05:34.585Z,100649.06
2022-09-01T18:08:10.227Z,100646.25
2022-09-01T18:10:59.036Z,100645.13
2022-09-01T18:13:52.388Z,100647.03
2022-09-01T18:16:24.674Z,100637.44
2022-09-01T18:18:53.153Z,100650.44
2022-09-01T18:21:37.319Z,100637.25
2022-09-01T18:24:15.772Z,100633.78
2022-09-01T18:26:48.540Z,100632.38
2022-09-01T18:29:18.016Z,100646.25
2022-09-01T18:32:07.916Z,100645.31
2022-09-01T18:34:56.088Z,100654.69
2022-09-01T18:37:49.928Z,100668.56
2022-09-01T18:40:30.905Z,100646.53
2022-09-01T18:43:16.697Z,100664.63
2022-09-01T18:46:14.143Z,100663.44
2022-09-01T18:49:07.265Z,100680.09
2022-09-01T18:51:46.453Z,100673.63
2022-09-01T18:54:22.702Z,100672.47
2022-09-01T18:57:02.793Z,100680.94
2022-09-01T18:59:44.650Z,100678.56
2022-09-01T19:02:21.158Z,100676.31
2022-09-01T19:04:52.732Z,100676.31
2022-09-01T19:07:34.523Z,100680.44
2022-09-01T19:10:10.265Z,100676.16
2022-09-01T19:13:13.590Z,100687.75
2022-09-01T19:15:49.525Z,100686.25
2022-09-01T19:18:26.137Z,100710.19
2022-09-01T19:21:00.771Z,100702.03
2022-09-01T19:23:44.329Z,100697.13
2022-09-01T19:26:16.833Z,100694.50
2022-09-01T19:28:51.010Z,100692.91
2022-09-01T19:31:36.732Z,100693.16
2022-09-01T19:34:20.329Z,100689.56
2022-09-01T19:36:57.990Z,100691.03
2022-09-01T19:39:31.430Z,100682.13
2022-09-01T19:42:19.509Z,100684.06
2022-09-01T19:45:06.879Z,100677.00
2022-09-01T19:48:05.923Z,100672.78
2022-09-01T19:50:38.496Z,100671.09
2022-09-01T19:53:30.779Z,100662.94
2022-09-01T19:56:31.277Z,100661.50
2022-09-01T19:59:21.910Z,100643.34
2022-09-01T20:01:59.295Z,100652.50
2022-09-01T20:04:53.645Z,100663.00
2022-09-01T20:07:39.020Z,100657.69
2022-09-01T20:10:16.430Z,100647.00
2022-09-01T20:13:24.947Z,100639.91
2022-09-01T20:16:10.951Z,100627.31
2022-09-01T20:18:46.368Z,100639.22
2022-09-01T20:21:20.744Z,100627.47
2022-09-01T20:23:54.329Z,100635.78
2022-09-01T20:26:32.766Z,100611.72
2022-09-01T20:29:01.337Z,100631.41
2022-09-01T20:31:39.567Z,100631.41
2022-09-01T20:34:36.811Z,100626.13
2022-09-01T20:37:16.557Z,100634.78
2022-09-01T20:40:01.171Z,100637.81
2022-09-01T20:42:39.103Z,100633.97
2022-09-01T20:45:14.562Z,100641.53
2022-09-01T20:47:45.259Z,100642.38
2022-09-01T20:50:13.960Z,100630.47
2022-09-01T20:52:58.842Z,100629.88
2022-09-01T20:55:32.618Z,100631.31
2022-09-01T20:58:26.766Z,100629.31
2022-09-01T21:01:26.721Z,100627.34
2022-09-01T21:04:29.417Z,100640.84
2022-09-01T21:06:55.846Z,100636.03
2022-09-01T21:09:49.648Z,100635.28
2022-09-01T21:12:31.182Z,100630.00
2022-09-01T21:15:19.232Z,100624.09
2022-09-01T21:18:12.153Z,100626.91
2022-09-01T21:21:03.407Z,100633.38
2022-09-01T21:23:32.742Z,100632.06
2022-09-01T21:26:00.337Z,100624.63
2022-09-01T21:28:28.348Z,100631.00
2022-09-01T21:30:57.730Z,100620.78
2022-09-01T21:33:27.523Z,100617.06
2022-09-01T21:35:54.396Z,100626.59
2022-09-01T21:38:23.624Z,100625.63
2022-09-01T21:40:51.606Z,100622.00
2022-09-01T21:43:21.225Z,100622.25
2022-09-01T21:45:50.337Z,100629.94
2022-09-01T21:48:17.725Z,100623.81
2022-09-01T21:50:45.945Z,100616.75
2022-09-01T21:53:14.609Z,100625.88
2022-09-01T21:55:41.341Z,100618.88
2022-09-01T21:58:08.358Z,100629.97
2022-09-01T22:00:39.267Z,100618.16
2022-09-01T22:03:07.542Z,100632.00
2022-09-01T22:05:35.753Z,100623.59
2022-09-01T22:08:02.531Z,100613.97
2022-09-01T22:10:31.492Z,100620.72
2022-09-01T22:12:59.026Z,100622.03
2022-09-01T22:15:28.815Z,100618.66
2022-09-01T22:17:56.693Z,100605.31
2022-09-01T22:20:24.653Z,100615.06
2022-09-01T22:23:01.886Z,100622.28
2022-09-01T22:25:30.409Z,100613.84
2022-09-01T22:28:02.538Z,100610.50
2022-09-01T22:30:29.479Z,100610.13
2022-09-01T22:32:56.072Z,100598.38
2022-09-01T22:35:25.582Z,100602.56
2022-09-01T22:37:52.092Z,100600.16
2022-09-01T22:40:18.922Z,100599.81
2022-09-01T22:42:45.922Z,100599.22
2022-09-01T22:45:14.329Z,100596.06
2022-09-01T22:47:41.340Z,100598.56
2022-09-01T22:50:08.960Z,100597.63
2022-09-01T22:52:38.319Z,100608.31
2022-09-01T22:55:05.492Z,100596.06
2022-09-01T22:57:32.354Z,100599.53
2022-09-01T22:59:58.884Z,100601.47
2022-09-01T23:02:25.395Z,100607.56
2022-09-01T23:04:52.160Z,100602.28
2022-09-01T23:07:18.599Z,100622.50
2022-09-01T23:09:47.439Z,100625.72
2022-09-01T23:12:13.832Z,100618.41
2022-09-01T23:14:41.282Z,100616.84
2022-09-01T23:17:07.767Z,100610.81
2022-09-01T23:19:35.471Z,100619.97
2022-09-01T23:22:05.179Z,100622.16
2022-09-01T23:24:31.631Z,100607.94
2022-09-01T23:26:58.163Z,100603.00
2022-09-01T23:29:25.319Z,100597.59
2022-09-01T23:31:51.790Z,100597.25
2022-09-01T23:34:18.331Z,100601.56
2022-09-01T23:36:45.003Z,100599.84
2022-09-01T23:39:11.452Z,100592.50
2022-09-01T23:41:38.655Z,100590.22
2022-09-01T23:44:11.314Z,100587.91
2022-09-01T23:46:41.891Z,100599.34
2022-09-01T23:49:09.316Z,100610.16
2022-09-01T23:51:35.850Z,100602.22
2022-09-01T23:54:05.793Z,100594.44
2022-09-01T23:56:32.667Z,100601.28
2022-09-01T23:58:59.982Z,100597.19
